Time,TemperatureF,DewpointF,PressureIn,WindDirection,WindDirectionDegrees,WindSpeedMPH,WindSpeedGustMPH,Humidity,HourlyPrecipIn,Conditions,Clouds,dailyrainin,SolarRadiationWatts/m^2,SoftwareType,DateUTC
2013-09-05 00:00:00,49.0,44.0,-100.00,NNE,22,0.0,-999.0,81,-99.99,,,-99.99,0.000000,,2013-09-05 05:00:00,
2013-09-05 00:43:00,49.0,44.0,-100.00,NNE,22,0.0,-999.0,81,-99.99,,,-99.99,0.000000,,2013-09-05 05:43:00,
2013-09-05 00:52:00,49.0,44.0,-100.00,NNE,22,0.0,-999.0,81,-99.99,,,-99.99,0.000000,,2013-09-05 05:52:00,
2013-09-05 01:00:00,48.0,43.0,-100.00,NNE,22,0.0,-999.0,82,-99.99,,,-99.99,0.000000,,2013-09-05 06:00:00,
2013-09-05 01:42:00,48.0,43.0,-100.00,NNE,22,0.0,-999.0,82,-99.99,,,-99.99,0.000000,,2013-09-05 06:42:00,
2013-09-05 01:52:00,48.0,43.0,-100.00,NNE,22,0.0,-999.0,82,-99.99,,,-99.99,0.000000,,2013-09-05 06:52:00,
2013-09-05 02:00:00,47.0,44.0,-100.00,NNE,22,0.0,-999.0,89,-99.99,,,-99.99,0.000000,,2013-09-05 07:00:00,
2013-09-05 02:42:00,47.0,44.0,-100.00,NNE,22,0.0,-999.0,89,-99.99,,,-99.99,0.000000,,2013-09-05 07:42:00,
2013-09-05 02:52:00,47.0,44.0,-100.00,NNE,22,0.0,-999.0,89,-99.99,,,-99.99,0.000000,,2013-09-05 07:52:00,
2013-09-05 03:00:00,47.0,43.0,-100.00,North,0,0.0,-999.0,88,-99.99,,,-99.99,0.000000,,2013-09-05 08:00:00,
2013-09-05 03:42:00,47.0,43.0,-100.00,North,0,0.0,-999.0,88,-99.99,,,-99.99,0.000000,,2013-09-05 08:42:00,
2013-09-05 03:52:00,47.0,43.0,-100.00,North,0,0.0,-999.0,88,-99.99,,,-99.99,0.000000,,2013-09-05 08:52:00,
2013-09-05 04:00:00,47.0,43.0,-100.00,NNE,22,0.0,-999.0,86,-99.99,,,-99.99,0.000000,,2013-09-05 09:00:00,
2013-09-05 04:43:00,47.0,43.0,-100.00,NNE,22,0.0,-999.0,86,-99.99,,,-99.99,0.000000,,2013-09-05 09:43:00,
2013-09-05 04:54:00,47.0,43.0,-100.00,NNE,22,0.0,-999.0,86,-99.99,,,-99.99,0.000000,,2013-09-05 09:54:00,
2013-09-05 05:00:00,48.0,43.0,-100.00,North,0,0.0,-999.0,83,-99.99,,,-99.99,0.000000,,2013-09-05 10:00:00,
2013-09-05 05:43:00,48.0,43.0,-100.00,North,0,0.0,-999.0,83,-99.99,,,-99.99,0.000000,,2013-09-05 10:43:00,
2013-09-05 05:53:00,48.0,43.0,-100.00,North,0,0.0,-999.0,83,-99.99,,,-99.99,0.000000,,2013-09-05 10:53:00,
2013-09-05 06:00:00,46.0,43.0,-100.00,North,0,0.0,-999.0,88,-99.99,,,-99.99,0.000000,,2013-09-05 11:00:00,
2013-09-05 06:43:00,46.0,43.0,-100.00,North,0,0.0,-999.0,88,-99.99,,,-99.99,0.000000,,2013-09-05 11:43:00,
2013-09-05 06:52:00,46.0,43.0,-100.00,North,0,0.0,-999.0,88,-99.99,,,-99.99,0.000000,,2013-09-05 11:52:00,
2013-09-05 07:00:00,48.0,44.0,-100.00,NNE,22,1.0,-999.0,84,-99.99,,,-99.99,18.559999,,2013-09-05 12:00:00,
2013-09-05 07:42:00,48.0,44.0,-100.00,NNE,22,1.0,-999.0,84,-99.99,,,-99.99,18.559999,,2013-09-05 12:42:00,
2013-09-05 07:52:00,48.0,44.0,-100.00,NNE,22,1.0,-999.0,84,-99.99,,,-99.99,18.559999,,2013-09-05 12:52:00,
2013-09-05 08:00:00,53.0,46.0,-100.00,NNE,22,1.0,-999.0,75,-99.99,,,-99.99,153.119995,,2013-09-05 13:00:00,
2013-09-05 08:42:00,53.0,46.0,-100.00,NNE,22,1.0,-999.0,75,-99.99,,,-99.99,153.119995,,2013-09-05 13:42:00,
2013-09-05 08:53:00,53.0,46.0,-100.00,NNE,22,1.0,-999.0,75,-99.99,,,-99.99,153.119995,,2013-09-05 13:53:00,
2013-09-05 09:00:00,59.0,47.0,-100.00,NNE,22,2.0,-999.0,65,-99.99,,,-99.99,339.880005,,2013-09-05 14:00:00,
2013-09-05 09:42:00,59.0,47.0,-100.00,NNE,22,2.0,-999.0,65,-99.99,,,-99.99,339.880005,,2013-09-05 14:42:00,
2013-09-05 09:52:00,59.0,47.0,-100.00,NNE,22,2.0,-999.0,65,-99.99,,,-99.99,339.880005,,2013-09-05 14:52:00,
2013-09-05 10:00:00,62.0,46.0,-100.00,East,90,2.0,-999.0,56,-99.99,,,-99.99,506.920013,,2013-09-05 15:00:00,
2013-09-05 10:44:00,62.0,46.0,-100.00,East,90,2.0,-999.0,56,-99.99,,,-99.99,506.920013,,2013-09-05 15:44:00,
2013-09-05 10:54:00,62.0,46.0,-100.00,East,90,2.0,-999.0,56,-99.99,,,-99.99,506.920013,,2013-09-05 15:54:00,
2013-09-05 11:00:00,63.0,47.0,-100.00,ESE,112,3.0,-999.0,56,-99.99,,,-99.99,634.520020,,2013-09-05 16:00:00,
2013-09-05 11:43:00,63.0,47.0,-100.00,ESE,112,3.0,-999.0,56,-99.99,,,-99.99,634.520020,,2013-09-05 16:43:00,
2013-09-05 11:54:00,63.0,47.0,-100.00,ESE,112,3.0,-999.0,56,-99.99,,,-99.99,634.520020,,2013-09-05 16:54:00,
2013-09-05 12:00:00,63.0,47.0,-100.00,SE,135,3.0,-999.0,54,-99.99,,,-99.99,720.359985,,2013-09-05 17:00:00,
2013-09-05 12:43:00,63.0,47.0,-100.00,SE,135,3.0,-999.0,54,-99.99,,,-99.99,720.359985,,2013-09-05 17:43:00,
2013-09-05 12:52:00,63.0,47.0,-100.00,SE,135,3.0,-999.0,54,-99.99,,,-99.99,720.359985,,2013-09-05 17:52:00,
2013-09-05 13:00:00,64.0,47.0,-100.00,ESE,112,3.0,-999.0,53,-99.99,,,-99.99,756.320007,,2013-09-05 18:00:00,
2013-09-05 13:43:00,64.0,47.0,-100.00,ESE,112,3.0,-999.0,53,-99.99,,,-99.99,756.320007,,2013-09-05 18:43:00,
2013-09-05 13:52:00,64.0,47.0,-100.00,ESE,112,3.0,-999.0,53,-99.99,,,-99.99,756.320007,,2013-09-05 18:52:00,
2013-09-05 14:00:00,65.0,47.0,-100.00,ESE,112,3.0,-999.0,53,-99.99,,,-99.99,741.239990,,2013-09-05 19:00:00,
2013-09-05 14:42:00,65.0,47.0,-100.00,ESE,112,3.0,-999.0,53,-99.99,,,-99.99,741.239990,,2013-09-05 19:42:00,
2013-09-05 14:52:00,65.0,47.0,-100.00,ESE,112,3.0,-999.0,53,-99.99,,,-99.99,741.239990,,2013-09-05 19:52:00,
2013-09-05 15:00:00,65.0,47.0,-100.00,ESE,112,3.0,-999.0,52,-99.99,,,-99.99,677.440002,,2013-09-05 20:00:00,
2013-09-05 15:43:00,65.0,47.0,-100.00,ESE,112,3.0,-999.0,52,-99.99,,,-99.99,677.440002,,2013-09-05 20:43:00,
2013-09-05 15:52:00,65.0,47.0,-100.00,ESE,112,3.0,-999.0,52,-99.99,,,-99.99,677.440002,,2013-09-05 20:52:00,
2013-09-05 16:00:00,65.0,48.0,-100.00,SE,135,4.0,-999.0,53,-99.99,,,-99.99,566.080017,,2013-09-05 21:00:00,
2013-09-05 16:44:00,65.0,48.0,-100.00,SE,135,4.0,-999.0,53,-99.99,,,-99.99,566.080017,,2013-09-05 21:44:00,
2013-09-05 16:54:00,65.0,48.0,-100.00,SE,135,4.0,-999.0,53,-99.99,,,-99.99,566.080017,,2013-09-05 21:54:00,
2013-09-05 17:00:00,64.0,48.0,-100.00,SE,135,3.0,-999.0,55,-99.99,,,-99.99,421.079987,,2013-09-05 22:00:00,
2013-09-05 17:43:00,64.0,48.0,-100.00,SE,135,3.0,-999.0,55,-99.99,,,-99.99,421.079987,,2013-09-05 22:43:00,
2013-09-05 17:53:00,64.0,48.0,-100.00,SE,135,3.0,-999.0,55,-99.99,,,-99.99,421.079987,,2013-09-05 22:53:00,
2013-09-05 18:00:00,63.0,48.0,-100.00,SE,135,3.0,-999.0,59,-99.99,,,-99.99,255.199997,,2013-09-05 23:00:00,
2013-09-05 18:42:00,63.0,48.0,-100.00,SE,135,3.0,-999.0,59,-99.99,,,-99.99,255.199997,,2013-09-05 23:42:00,
2013-09-05 18:53:00,63.0,48.0,-100.00,SE,135,3.0,-999.0,59,-99.99,,,-99.99,255.199997,,2013-09-05 23:53:00,
2013-09-05 19:00:00,60.0,48.0,-100.00,SSE,157,2.0,-999.0,64,-99.99,,,-99.99,90.480003,,2013-09-06 00:00:00,
2013-09-05 19:42:00,60.0,48.0,-100.00,SSE,157,2.0,-999.0,64,-99.99,,,-99.99,90.480003,,2013-09-06 00:42:00,
2013-09-05 19:52:00,60.0,48.0,-100.00,SSE,157,2.0,-999.0,64,-99.99,,,-99.99,90.480003,,2013-09-06 00:52:00,
2013-09-05 20:00:00,55.0,48.0,-100.00,South,180,0.0,-999.0,77,-99.99,,,-99.99,3.480000,,2013-09-06 01:00:00,
2013-09-05 20:42:00,55.0,48.0,-100.00,South,180,0.0,-999.0,77,-99.99,,,-99.99,3.480000,,2013-09-06 01:42:00,
2013-09-05 20:52:00,55.0,48.0,-100.00,South,180,0.0,-999.0,77,-99.99,,,-99.99,3.480000,,2013-09-06 01:52:00,
2013-09-05 21:42:00,51.0,48.0,-100.00,South,180,0.0,-999.0,90,-99.99,,,-99.99,0.000000,,2013-09-06 02:42:00,
2013-09-05 23:00:00,50.0,49.0,-100.00,South,180,0.0,-999.0,95,-99.99,,,-99.99,0.000000,,2013-09-06 04:00:00,
2013-09-05 23:54:00,50.0,49.0,-100.00,South,180,0.0,-999.0,95,-99.99,,,-99.99,0.000000,,2013-09-06 04:54:00,